createdAt,value
2022-12-20T00:00:21.378Z,1.60
2022-12-20T00:01:53.297Z,1.80
2022-12-20T00:03:26.077Z,1.70
2022-12-20T00:05:00.223Z,1.70
2022-12-20T00:06:33.300Z,1.60
2022-12-20T00:08:06.610Z,1.70
2022-12-20T00:09:39.383Z,1.60
2022-12-20T00:11:11.508Z,1.60
2022-12-20T00:12:44.230Z,1.60
2022-12-20T00:14:16.955Z,1.60
2022-12-20T00:15:49.670Z,1.60
2022-12-20T00:17:22.983Z,1.60
2022-12-20T00:18:56.869Z,1.60
2022-12-20T00:20:31.221Z,1.60
2022-12-20T00:22:04.087Z,1.60
2022-12-20T00:23:38.242Z,1.70
2022-12-20T00:25:11.185Z,1.60
2022-12-20T00:26:43.884Z,1.60
2022-12-20T00:28:15.680Z,1.60
2022-12-20T00:29:48.399Z,1.70
2022-12-20T00:31:23.176Z,1.60
2022-12-20T00:32:55.988Z,1.60
2022-12-20T00:34:28.753Z,1.60
2022-12-20T00:36:01.972Z,1.70
2022-12-20T00:37:34.997Z,1.70
2022-12-20T00:39:07.734Z,1.60
2022-12-20T00:40:40.547Z,1.60
2022-12-20T00:42:13.293Z,1.70
2022-12-20T00:43:45.106Z,1.60
2022-12-20T00:45:17.961Z,1.70
2022-12-20T00:46:50.761Z,1.70
2022-12-20T00:48:24.030Z,1.70
2022-12-20T00:49:56.753Z,1.70
2022-12-20T00:51:32.916Z,1.70
2022-12-20T00:53:05.678Z,1.70
2022-12-20T00:54:38.505Z,1.70
2022-12-20T00:56:11.706Z,1.70
2022-12-20T00:57:44.462Z,1.70
2022-12-20T00:59:17.173Z,1.80
2022-12-20T01:00:55.776Z,1.80
2022-12-20T01:02:29.295Z,1.80
2022-12-20T01:04:02.726Z,1.80
2022-12-20T01:05:35.643Z,1.80
2022-12-20T01:07:10.888Z,1.70
2022-12-20T01:08:44.242Z,1.80
2022-12-20T01:10:18.151Z,1.80
2022-12-20T01:11:50.865Z,1.80
2022-12-20T01:13:22.605Z,1.80
2022-12-20T01:14:55.352Z,1.80
2022-12-20T01:16:32.293Z,1.80
2022-12-20T01:18:04.249Z,1.80
2022-12-20T01:19:36.955Z,1.80
2022-12-20T01:21:11.374Z,1.80
2022-12-20T01:22:47.645Z,1.80
2022-12-20T01:24:21.572Z,1.80
2022-12-20T01:25:53.335Z,1.80
2022-12-20T01:27:26.081Z,1.80
2022-12-20T01:29:00.250Z,1.80
2022-12-20T01:30:33.073Z,1.80
2022-12-20T01:32:06.090Z,1.90
2022-12-20T01:33:38.010Z,1.90
2022-12-20T01:35:10.943Z,1.90
2022-12-20T01:36:43.794Z,1.90
2022-12-20T01:38:16.882Z,1.90
2022-12-20T01:39:49.640Z,1.80
2022-12-20T01:41:22.985Z,1.80
2022-12-20T01:42:55.713Z,1.80
2022-12-20T01:44:58.249Z,1.80
2022-12-20T01:46:32.821Z,1.80
2022-12-20T01:48:06.235Z,1.80
2022-12-20T01:49:43.134Z,1.80
2022-12-20T01:51:16.180Z,1.80
2022-12-20T01:52:49.326Z,1.80
2022-12-20T01:54:26.985Z,1.80
2022-12-20T01:56:04.763Z,1.70
2022-12-20T01:57:43.305Z,1.80
2022-12-20T01:59:16.204Z,1.80
2022-12-20T02:00:49.503Z,1.80
2022-12-20T02:02:21.502Z,1.80
2022-12-20T02:03:56.222Z,1.70
2022-12-20T02:05:29.092Z,1.80
2022-12-20T02:07:03.608Z,1.70
2022-12-20T02:08:36.374Z,1.80
2022-12-20T02:10:12.704Z,1.80
2022-12-20T02:12:04.031Z,1.80
2022-12-20T02:13:44.064Z,1.80
2022-12-20T02:15:38.621Z,1.80
2022-12-20T02:17:19.428Z,1.80
2022-12-20T02:18:57.957Z,1.80
2022-12-20T02:20:49.177Z,1.80
2022-12-20T02:22:30.488Z,1.80
2022-12-20T02:24:43.489Z,1.80
2022-12-20T02:26:40.029Z,1.70
2022-12-20T02:28:30.955Z,1.80
2022-12-20T02:30:20.787Z,1.80
2022-12-20T02:32:00.363Z,1.80
2022-12-20T02:33:33.241Z,1.80
2022-12-20T02:35:08.482Z,1.80
2022-12-20T02:36:41.368Z,1.80
2022-12-20T02:38:29.984Z,1.80
2022-12-20T02:40:05.322Z,1.80
2022-12-20T02:41:40.120Z,1.80
2022-12-20T02:43:27.610Z,1.80
2022-12-20T02:45:16.140Z,1.80
2022-12-20T02:46:50.528Z,1.70
2022-12-20T02:48:24.748Z,1.70
2022-12-20T02:49:58.292Z,1.70
2022-12-20T02:51:33.079Z,1.80
2022-12-20T02:53:07.616Z,1.70
2022-12-20T02:54:39.571Z,1.70
2022-12-20T02:56:16.949Z,1.70
2022-12-20T02:58:00.308Z,1.70
2022-12-20T02:59:39.464Z,1.70
2022-12-20T03:01:17.372Z,1.70
2022-12-20T03:03:10.499Z,1.70
2022-12-20T03:04:44.512Z,1.70
2022-12-20T03:06:17.498Z,1.70
2022-12-20T03:07:49.348Z,1.70
2022-12-20T03:09:22.092Z,1.70
2022-12-20T03:10:55.838Z,1.70
2022-12-20T03:12:28.567Z,1.70
2022-12-20T03:14:01.299Z,1.70
2022-12-20T03:15:34.061Z,1.70
2022-12-20T03:17:07.617Z,1.70
2022-12-20T03:18:41.776Z,1.70
2022-12-20T03:20:14.605Z,1.60
2022-12-20T03:21:47.671Z,1.70
2022-12-20T03:23:21.939Z,1.50
2022-12-20T03:24:53.709Z,1.50
2022-12-20T03:26:26.446Z,1.50
2022-12-20T03:27:59.241Z,1.50
2022-12-20T03:29:32.024Z,1.50
2022-12-20T03:31:03.866Z,1.60
2022-12-20T03:32:36.659Z,1.60
2022-12-20T03:34:10.754Z,1.60
2022-12-20T03:35:43.567Z,1.60
2022-12-20T03:37:16.285Z,1.60
2022-12-20T03:38:49.011Z,1.60
2022-12-20T03:40:21.766Z,1.70
2022-12-20T03:41:54.495Z,1.70
2022-12-20T03:43:27.242Z,1.70
2022-12-20T03:44:59.986Z,1.70
2022-12-20T03:46:32.829Z,1.80
2022-12-20T03:48:05.662Z,1.80
2022-12-20T03:49:39.724Z,1.90
2022-12-20T03:51:12.572Z,1.90
2022-12-20T03:52:44.376Z,1.90
2022-12-20T03:54:17.143Z,1.90
2022-12-20T03:55:49.844Z,1.90
2022-12-20T03:57:22.601Z,1.90
2022-12-20T03:58:54.354Z,2.00
2022-12-20T04:00:27.257Z,2.00
2022-12-20T04:01:59.139Z,2.00
2022-12-20T04:03:32.026Z,1.90
2022-12-20T04:05:07.388Z,1.90
2022-12-20T04:06:40.125Z,1.90
2022-12-20T04:08:12.836Z,1.90
2022-12-20T04:09:45.578Z,1.90
2022-12-20T04:11:17.374Z,1.90
2022-12-20T04:12:50.111Z,1.90
2022-12-20T04:14:22.838Z,1.90
2022-12-20T04:16:00.274Z,1.90
2022-12-20T04:17:33.838Z,1.90
2022-12-20T04:19:06.884Z,1.90
2022-12-20T04:20:40.051Z,1.90
2022-12-20T04:22:12.778Z,1.90
2022-12-20T04:23:44.538Z,1.90
2022-12-20T04:25:19.677Z,1.80
2022-12-20T04:26:52.441Z,1.90
2022-12-20T04:28:25.174Z,1.90
2022-12-20T04:29:57.919Z,1.90
2022-12-20T04:31:30.715Z,1.80
2022-12-20T04:33:04.266Z,1.90
2022-12-20T04:34:36.998Z,1.90
2022-12-20T04:36:10.386Z,1.90
2022-12-20T04:37:43.226Z,2.00
2022-12-20T04:39:16.025Z,2.00
2022-12-20T04:40:49.756Z,2.00
2022-12-20T04:42:22.539Z,2.10
2022-12-20T04:43:56.941Z,2.10
2022-12-20T04:45:29.710Z,2.10
2022-12-20T04:47:02.474Z,2.10
2022-12-20T04:48:56.492Z,2.20
2022-12-20T04:50:28.401Z,2.20
2022-12-20T04:52:22.594Z,2.20
2022-12-20T04:53:55.180Z,2.10
2022-12-20T04:55:26.972Z,2.10
2022-12-20T04:56:59.726Z,2.10
2022-12-20T04:58:31.809Z,2.10
2022-12-20T05:00:05.446Z,2.10
2022-12-20T05:01:38.288Z,2.10
2022-12-20T05:03:10.262Z,2.10
2022-12-20T05:04:43.204Z,2.10
2022-12-20T05:06:16.600Z,2.10
2022-12-20T05:07:51.243Z,2.10
2022-12-20T05:09:24.055Z,2.10
2022-12-20T05:10:56.809Z,2.10
2022-12-20T05:12:29.555Z,2.10
2022-12-20T05:14:02.307Z,2.10
2022-12-20T05:15:34.666Z,2.10
2022-12-20T05:17:07.447Z,2.10
2022-12-20T05:18:46.480Z,2.10
2022-12-20T05:20:20.064Z,2.10
2022-12-20T05:22:10.429Z,2.00
2022-12-20T05:24:02.175Z,2.00
2022-12-20T05:25:52.566Z,2.00
2022-12-20T05:27:25.351Z,2.00
2022-12-20T05:28:58.214Z,2.00
2022-12-20T05:30:29.977Z,1.90
2022-12-20T05:32:02.708Z,1.90
2022-12-20T05:33:35.624Z,1.80
2022-12-20T05:35:09.088Z,1.90
2022-12-20T05:36:41.845Z,1.80
2022-12-20T05:38:13.644Z,1.80
2022-12-20T05:39:47.715Z,1.80
2022-12-20T05:41:20.002Z,1.70
2022-12-20T05:42:52.754Z,1.70
2022-12-20T05:44:26.020Z,1.70
2022-12-20T05:45:58.817Z,1.70
2022-12-20T05:47:33.724Z,1.70
2022-12-20T05:49:06.430Z,1.70
2022-12-20T05:50:39.152Z,1.70
2022-12-20T05:52:11.865Z,1.80
2022-12-20T05:53:44.671Z,1.80
2022-12-20T05:55:17.999Z,1.90
2022-12-20T05:56:50.776Z,1.90
2022-12-20T05:58:23.481Z,1.90
2022-12-20T05:59:56.201Z,1.90
2022-12-20T06:01:28.966Z,2.00
2022-12-20T06:03:01.948Z,2.00
2022-12-20T06:04:35.193Z,2.10
2022-12-20T06:06:13.925Z,2.20
2022-12-20T06:07:47.860Z,2.20
2022-12-20T06:09:20.775Z,2.30
2022-12-20T06:10:55.140Z,2.30
2022-12-20T06:12:27.888Z,2.40
2022-12-20T06:14:00.625Z,2.40
2022-12-20T06:15:33.374Z,2.40
2022-12-20T06:17:06.150Z,2.30
2022-12-20T06:18:38.861Z,2.30
2022-12-20T06:20:13.160Z,2.20
2022-12-20T06:21:45.964Z,2.20
2022-12-20T06:23:18.829Z,2.20
2022-12-20T06:24:51.598Z,2.20
2022-12-20T06:26:25.676Z,2.20
2022-12-20T06:27:58.817Z,2.10
2022-12-20T06:29:31.590Z,2.10
2022-12-20T06:31:04.369Z,2.10
2022-12-20T06:32:37.143Z,2.10
2022-12-20T06:34:09.885Z,2.10
2022-12-20T06:35:42.607Z,2.10
2022-12-20T06:37:15.352Z,2.10
2022-12-20T06:38:48.137Z,2.10
2022-12-20T06:40:21.036Z,2.00
2022-12-20T06:41:55.112Z,2.10
2022-12-20T06:43:27.857Z,2.10
2022-12-20T06:45:00.591Z,2.00
2022-12-20T06:46:33.514Z,2.00
2022-12-20T06:48:06.564Z,2.00
2022-12-20T06:49:39.278Z,2.00
2022-12-20T06:51:12.438Z,2.00
2022-12-20T06:52:45.197Z,2.00
2022-12-20T06:54:17.907Z,2.00
2022-12-20T06:55:51.168Z,2.00
2022-12-20T06:57:25.274Z,2.00
2022-12-20T06:58:57.977Z,1.90
2022-12-20T07:00:30.831Z,2.00
2022-12-20T07:02:04.418Z,2.00
2022-12-20T07:03:38.214Z,2.00
2022-12-20T07:05:11.095Z,2.00
2022-12-20T07:06:43.819Z,2.00
2022-12-20T07:08:16.547Z,2.10
2022-12-20T07:09:49.308Z,2.10
2022-12-20T07:11:22.075Z,2.10
2022-12-20T07:12:56.133Z,2.20
2022-12-20T07:14:29.125Z,2.20
2022-12-20T07:16:03.322Z,2.20
2022-12-20T07:17:36.204Z,2.20
2022-12-20T07:19:11.807Z,2.30
2022-12-20T07:20:44.604Z,2.30
2022-12-20T07:22:17.340Z,2.40
2022-12-20T07:23:50.126Z,2.40
2022-12-20T07:25:22.904Z,2.40
2022-12-20T07:26:55.868Z,2.40
2022-12-20T07:28:30.060Z,2.50
2022-12-20T07:30:02.920Z,2.50
2022-12-20T07:31:35.775Z,2.50
2022-12-20T07:33:08.527Z,2.40
2022-12-20T07:34:41.477Z,2.50
2022-12-20T07:36:15.835Z,2.50
2022-12-20T07:37:48.567Z,2.50
2022-12-20T07:39:21.277Z,2.50
2022-12-20T07:40:53.984Z,2.50
2022-12-20T07:42:33.582Z,2.50
2022-12-20T07:44:10.418Z,2.40
2022-12-20T07:45:43.174Z,2.40
2022-12-20T07:47:16.419Z,2.40
2022-12-20T07:48:49.139Z,2.40
2022-12-20T07:50:21.949Z,2.40
2022-12-20T07:51:58.052Z,2.40
2022-12-20T07:53:32.450Z,2.40
2022-12-20T07:55:07.947Z,2.30
2022-12-20T07:56:45.992Z,2.30
2022-12-20T07:58:19.882Z,2.30
2022-12-20T07:59:58.087Z,2.30
2022-12-20T08:01:32.259Z,2.30
2022-12-20T08:03:13.312Z,2.30
2022-12-20T08:04:46.556Z,2.30
2022-12-20T08:06:20.222Z,2.30
2022-12-20T08:07:59.269Z,2.30
2022-12-20T08:09:37.278Z,2.40
2022-12-20T08:11:11.239Z,2.40
2022-12-20T08:12:46.066Z,2.40
2022-12-20T08:14:20.367Z,2.30
2022-12-20T08:15:54.476Z,2.40
2022-12-20T08:17:27.208Z,2.40
2022-12-20T08:18:59.930Z,2.40
2022-12-20T08:20:32.790Z,2.40
2022-12-20T08:22:06.160Z,2.50
2022-12-20T08:23:38.921Z,2.50
2022-12-20T08:25:12.434Z,2.50
2022-12-20T08:26:45.163Z,2.50
2022-12-20T08:28:17.904Z,2.50
2022-12-20T08:29:50.740Z,2.60
2022-12-20T08:31:24.979Z,2.60
2022-12-20T08:32:57.866Z,2.60
2022-12-20T08:34:31.131Z,2.70
2022-12-20T08:36:06.832Z,2.70
2022-12-20T08:37:39.569Z,2.70
2022-12-20T08:39:12.347Z,2.70
2022-12-20T08:40:45.375Z,2.70
2022-12-20T08:42:18.115Z,2.80
2022-12-20T08:43:50.878Z,2.70
2022-12-20T08:45:23.627Z,2.70
2022-12-20T08:46:57.805Z,2.70
2022-12-20T08:48:31.530Z,2.70
2022-12-20T08:50:04.460Z,2.70
2022-12-20T08:51:37.500Z,2.70
2022-12-20T08:53:10.275Z,2.70
2022-12-20T08:54:43.026Z,2.70
2022-12-20T08:56:18.136Z,2.70
2022-12-20T08:57:50.875Z,2.70
2022-12-20T08:59:23.645Z,2.70
2022-12-20T09:01:04.559Z,2.80
2022-12-20T09:02:41.270Z,2.70
2022-12-20T09:04:15.277Z,2.70
2022-12-20T09:05:48.749Z,2.70
2022-12-20T09:07:21.484Z,2.70
2022-12-20T09:08:55.537Z,2.80
2022-12-20T09:10:28.268Z,2.70
2022-12-20T09:12:01.300Z,2.70
2022-12-20T09:13:37.988Z,2.60
2022-12-20T09:15:16.103Z,2.60
2022-12-20T09:16:49.112Z,2.60
2022-12-20T09:18:23.161Z,2.60
2022-12-20T09:19:55.945Z,2.60
2022-12-20T09:21:29.385Z,2.60
2022-12-20T09:23:02.115Z,2.60
2022-12-20T09:24:34.830Z,2.70
2022-12-20T09:26:09.661Z,2.70
2022-12-20T09:27:42.380Z,2.70
2022-12-20T09:29:19.444Z,2.80
2022-12-20T09:30:59.415Z,2.80
2022-12-20T09:32:32.140Z,2.90
2022-12-20T09:34:06.495Z,3.00
2022-12-20T09:35:45.926Z,3.00
2022-12-20T09:37:18.612Z,3.10
2022-12-20T09:38:52.043Z,3.10
2022-12-20T09:40:27.681Z,3.10
2022-12-20T09:42:01.005Z,3.10
2022-12-20T09:43:34.800Z,3.20
2022-12-20T09:45:10.610Z,3.20
2022-12-20T09:46:44.678Z,3.20
2022-12-20T09:48:20.764Z,3.30
2022-12-20T09:49:56.874Z,3.30
2022-12-20T09:51:44.447Z,3.30
2022-12-20T09:53:33.095Z,3.30
2022-12-20T09:55:17.344Z,3.30
2022-12-20T09:56:58.928Z,3.30
2022-12-20T09:58:58.673Z,3.30
2022-12-20T10:00:37.394Z,3.30
2022-12-20T10:02:35.552Z,3.40
2022-12-20T10:04:07.643Z,3.30
2022-12-20T10:05:51.056Z,3.40
2022-12-20T10:07:38.957Z,3.40
2022-12-20T10:09:31.124Z,3.40
2022-12-20T10:11:11.263Z,3.50
2022-12-20T10:12:51.016Z,3.50
2022-12-20T10:14:37.157Z,3.50
2022-12-20T10:16:22.993Z,3.60
2022-12-20T10:18:12.364Z,3.60
2022-12-20T10:20:01.688Z,3.60
2022-12-20T10:21:42.710Z,3.60
2022-12-20T10:23:27.911Z,3.70
2022-12-20T10:25:16.733Z,3.60
2022-12-20T10:26:51.346Z,3.70
2022-12-20T10:28:28.633Z,3.70
2022-12-20T10:30:01.329Z,3.70
2022-12-20T10:31:35.836Z,3.70
2022-12-20T10:33:17.787Z,3.70
2022-12-20T10:34:56.434Z,3.70
2022-12-20T10:36:30.820Z,3.70
2022-12-20T10:38:08.708Z,3.70
2022-12-20T10:39:43.655Z,3.60
2022-12-20T10:41:22.210Z,3.60
2022-12-20T10:42:56.533Z,3.60
2022-12-20T10:44:32.744Z,3.60
2022-12-20T10:46:08.344Z,3.60
2022-12-20T10:47:44.069Z,3.60
2022-12-20T10:49:27.776Z,3.60
2022-12-20T10:51:03.328Z,3.70
2022-12-20T10:52:36.060Z,3.70
2022-12-20T10:54:24.483Z,3.70
2022-12-20T10:56:14.605Z,3.80
2022-12-20T10:57:47.408Z,3.80
2022-12-20T10:59:31.386Z,3.80
2022-12-20T11:01:14.721Z,3.80
2022-12-20T11:03:04.490Z,3.80
2022-12-20T11:04:40.347Z,3.80
2022-12-20T11:06:18.249Z,3.90
2022-12-20T11:09:57.244Z,3.90
2022-12-20T11:11:30.068Z,3.90
2022-12-20T11:13:04.266Z,4.00
2022-12-20T11:14:39.749Z,4.00
2022-12-20T11:16:30.859Z,4.00
2022-12-20T11:18:09.607Z,4.10
2022-12-20T11:19:59.860Z,4.10
2022-12-20T11:21:40.916Z,4.10
2022-12-20T11:23:23.118Z,4.20
2022-12-20T11:25:06.989Z,4.20
2022-12-20T11:27:03.126Z,4.20
2022-12-20T11:28:52.600Z,4.20
2022-12-20T11:30:29.989Z,4.30
2022-12-20T11:32:10.069Z,4.30
2022-12-20T11:33:53.591Z,4.30
2022-12-20T11:35:33.511Z,4.30
2022-12-20T11:37:19.467Z,4.40
2022-12-20T11:38:59.789Z,4.40
2022-12-20T11:40:38.844Z,4.40
2022-12-20T11:42:23.057Z,4.40
2022-12-20T11:46:16.527Z,4.40
2022-12-20T11:48:21.730Z,4.40
2022-12-20T11:50:12.956Z,4.40
2022-12-20T11:51:48.200Z,4.40
2022-12-20T11:53:27.311Z,4.40
2022-12-20T11:55:08.758Z,4.40
2022-12-20T11:56:45.356Z,4.40
2022-12-20T11:58:22.766Z,4.50
2022-12-20T11:59:59.617Z,4.50
2022-12-20T12:01:36.859Z,4.50
2022-12-20T12:03:15.171Z,4.50
2022-12-20T12:04:52.212Z,4.60
2022-12-20T12:06:29.758Z,4.60
2022-12-20T12:08:10.962Z,4.60
2022-12-20T12:09:56.408Z,4.60
2022-12-20T12:12:05.020Z,4.60
2022-12-20T12:13:29.397Z,4.60
2022-12-20T12:15:12.742Z,4.60
2022-12-20T12:16:53.347Z,4.60
2022-12-20T12:18:29.946Z,4.60
2022-12-20T12:20:19.834Z,4.60
2022-12-20T12:21:58.954Z,4.70
2022-12-20T12:23:37.932Z,4.70
2022-12-20T12:25:16.401Z,4.70
2022-12-20T12:26:49.135Z,4.70
2022-12-20T12:28:23.319Z,4.70
2022-12-20T12:29:59.551Z,4.70
2022-12-20T12:31:39.840Z,4.80
2022-12-20T12:33:23.974Z,4.80
2022-12-20T12:35:11.846Z,4.80
2022-12-20T12:37:15.102Z,4.80
2022-12-20T12:39:15.939Z,4.80
2022-12-20T12:41:10.950Z,4.80
2022-12-20T12:43:17.113Z,4.80
2022-12-20T12:44:53.716Z,4.80
2022-12-20T12:46:30.785Z,4.80
2022-12-20T12:48:08.960Z,4.80
2022-12-20T12:49:42.469Z,4.80
2022-12-20T12:51:16.852Z,4.80
2022-12-20T12:52:51.663Z,4.80
2022-12-20T12:54:27.199Z,4.80
2022-12-20T12:56:19.328Z,4.90
2022-12-20T12:57:57.203Z,4.90
2022-12-20T12:59:51.786Z,5.00
2022-12-20T13:01:53.703Z,5.00
2022-12-20T13:03:47.485Z,5.10
2022-12-20T13:05:36.938Z,5.20
2022-12-20T13:07:26.600Z,5.30
2022-12-20T13:09:20.707Z,5.40
2022-12-20T13:11:01.503Z,5.40
2022-12-20T13:12:57.236Z,5.40
2022-12-20T13:14:54.213Z,5.50
2022-12-20T13:17:09.500Z,5.50
2022-12-20T13:18:26.876Z,5.50
2022-12-20T13:19:59.929Z,5.60
2022-12-20T13:21:37.482Z,5.50
2022-12-20T13:23:17.191Z,5.50
2022-12-20T13:24:56.102Z,5.50
2022-12-20T13:26:52.406Z,5.50
2022-12-20T13:28:47.068Z,5.50
2022-12-20T13:30:28.248Z,5.50
2022-12-20T13:32:01.213Z,5.40
2022-12-20T13:33:43.922Z,5.40
2022-12-20T13:35:31.287Z,5.40
2022-12-20T13:37:04.010Z,5.40
2022-12-20T13:38:53.605Z,5.40
2022-12-20T13:40:35.530Z,5.40
2022-12-20T13:42:31.610Z,5.50
2022-12-20T13:44:29.411Z,5.50
2022-12-20T13:46:14.608Z,5.50
2022-12-20T13:47:53.757Z,5.50
2022-12-20T13:49:30.686Z,5.60
2022-12-20T13:51:03.682Z,5.60
2022-12-20T13:52:42.885Z,5.70
2022-12-20T13:54:26.647Z,5.70
2022-12-20T13:56:00.047Z,5.70
2022-12-20T13:57:40.119Z,5.70
2022-12-20T13:59:17.471Z,5.80
2022-12-20T14:00:51.611Z,5.80
2022-12-20T14:02:27.624Z,5.80
2022-12-20T14:04:04.712Z,5.90
2022-12-20T14:05:39.772Z,5.90
2022-12-20T14:07:17.103Z,5.90
2022-12-20T14:08:51.707Z,5.90
2022-12-20T14:10:27.524Z,6.00
2022-12-20T14:12:06.038Z,6.00
2022-12-20T14:13:38.754Z,6.00
2022-12-20T14:15:23.122Z,6.00
2022-12-20T14:16:55.923Z,6.00
2022-12-20T14:18:28.683Z,6.10
2022-12-20T14:20:23.367Z,6.00
2022-12-20T14:21:57.466Z,6.10
2022-12-20T14:23:37.115Z,6.00
2022-12-20T14:25:13.146Z,6.10
2022-12-20T14:26:49.611Z,6.00
2022-12-20T14:28:31.306Z,6.00
2022-12-20T14:30:05.652Z,6.00
2022-12-20T14:31:41.778Z,6.00
2022-12-20T14:33:22.542Z,6.00
2022-12-20T14:34:55.381Z,6.00
2022-12-20T14:36:28.095Z,6.00
2022-12-20T14:38:04.126Z,6.00
2022-12-20T14:39:36.869Z,5.90
2022-12-20T14:41:30.300Z,6.00
2022-12-20T14:43:15.849Z,5.90
2022-12-20T14:44:48.633Z,5.90
2022-12-20T14:46:22.498Z,5.90
2022-12-20T14:48:02.913Z,5.90
2022-12-20T14:49:38.503Z,5.90
2022-12-20T14:51:11.636Z,5.90
2022-12-20T14:52:44.969Z,5.90
2022-12-20T14:54:56.834Z,5.90
2022-12-20T14:56:16.625Z,5.90
2022-12-20T14:57:51.957Z,5.90
2022-12-20T14:59:28.755Z,5.80
2022-12-20T15:01:03.678Z,5.80
2022-12-20T15:02:40.755Z,5.80
2022-12-20T15:04:25.851Z,5.80
2022-12-20T15:06:00.196Z,5.80
2022-12-20T15:07:33.133Z,5.70
2022-12-20T15:09:06.180Z,5.70
2022-12-20T15:10:42.662Z,5.70
2022-12-20T15:12:15.368Z,5.70
2022-12-20T15:13:49.863Z,5.70
2022-12-20T15:15:29.461Z,5.60
2022-12-20T15:17:03.635Z,5.60
2022-12-20T15:18:36.375Z,5.60
2022-12-20T15:20:12.973Z,5.60
2022-12-20T15:21:46.524Z,5.50
2022-12-20T15:23:21.508Z,5.60
2022-12-20T15:24:54.247Z,5.60
2022-12-20T15:26:29.257Z,5.60
2022-12-20T15:28:01.975Z,5.60
2022-12-20T15:29:35.713Z,5.60
2022-12-20T15:31:11.463Z,5.60
2022-12-20T15:32:55.105Z,5.50
2022-12-20T15:34:31.303Z,5.50
2022-12-20T15:36:04.320Z,5.60
2022-12-20T15:37:37.090Z,5.60
2022-12-20T15:39:14.539Z,5.60
2022-12-20T15:40:49.624Z,5.60
2022-12-20T15:42:25.276Z,5.50
2022-12-20T15:43:59.757Z,5.50
2022-12-20T15:45:33.683Z,5.50
2022-12-20T15:47:06.546Z,5.50
2022-12-20T15:48:39.315Z,5.50
2022-12-20T15:50:13.581Z,5.50
2022-12-20T15:51:48.413Z,5.50
2022-12-20T15:53:24.187Z,5.50
2022-12-20T15:54:56.931Z,5.50
2022-12-20T15:56:30.095Z,5.50
2022-12-20T15:58:04.163Z,5.40
2022-12-20T16:01:40.378Z,5.40
2022-12-20T16:03:20.286Z,5.40
2022-12-20T16:04:53.290Z,5.40
2022-12-20T16:06:26.048Z,5.40
2022-12-20T16:07:58.943Z,5.40
2022-12-20T16:09:34.457Z,5.40
2022-12-20T16:11:07.866Z,5.50
2022-12-20T16:12:41.275Z,5.40
2022-12-20T16:14:18.331Z,5.40
2022-12-20T16:15:51.565Z,5.40
2022-12-20T16:17:25.006Z,5.40
2022-12-20T16:18:58.174Z,5.40
2022-12-20T16:20:31.482Z,5.30
2022-12-20T16:22:04.218Z,5.30
2022-12-20T16:23:36.950Z,5.30
2022-12-20T16:25:23.555Z,5.30
2022-12-20T16:26:56.287Z,5.30
2022-12-20T16:28:28.961Z,5.30
2022-12-20T16:30:03.019Z,5.30
2022-12-20T16:31:37.260Z,5.30
2022-12-20T16:33:20.507Z,5.30
2022-12-20T16:34:53.592Z,5.40
2022-12-20T16:36:26.783Z,5.30
2022-12-20T16:38:01.189Z,5.40
2022-12-20T16:39:33.934Z,5.40
2022-12-20T16:41:13.760Z,5.40
2022-12-20T16:42:47.176Z,5.40
2022-12-20T16:44:19.970Z,5.40
2022-12-20T16:45:53.992Z,5.40
2022-12-20T16:47:27.009Z,5.40
2022-12-20T16:49:01.213Z,5.50
2022-12-20T16:50:33.903Z,5.40
2022-12-20T16:52:07.347Z,5.50
2022-12-20T16:54:02.713Z,5.50
2022-12-20T16:55:39.464Z,5.50
2022-12-20T16:57:12.756Z,5.50
2022-12-20T16:59:18.069Z,5.50
2022-12-20T17:00:38.198Z,5.50
2022-12-20T17:02:22.762Z,5.50
2022-12-20T17:03:55.839Z,5.50
2022-12-20T17:05:31.344Z,5.50
2022-12-20T17:07:04.060Z,5.50
2022-12-20T17:08:51.924Z,5.40
2022-12-20T17:10:25.937Z,5.50
2022-12-20T17:11:59.993Z,5.40
2022-12-20T17:13:33.173Z,5.50
2022-12-20T17:15:06.854Z,5.40
2022-12-20T17:16:39.671Z,5.50
2022-12-20T17:18:14.434Z,5.50
2022-12-20T17:19:47.425Z,5.50
2022-12-20T17:21:23.887Z,5.60
2022-12-20T17:22:57.111Z,5.60
2022-12-20T17:24:30.085Z,5.70
2022-12-20T17:26:02.798Z,5.70
2022-12-20T17:27:35.523Z,5.70
2022-12-20T17:29:08.269Z,5.80
2022-12-20T17:30:41.070Z,5.80
2022-12-20T17:32:20.763Z,5.80
2022-12-20T17:33:55.120Z,5.80
2022-12-20T17:35:30.385Z,5.80
2022-12-20T17:37:03.530Z,5.80
2022-12-20T17:38:36.226Z,5.80
2022-12-20T17:40:13.411Z,5.80
2022-12-20T17:41:46.987Z,5.80
2022-12-20T17:43:19.731Z,5.80
2022-12-20T17:44:52.409Z,5.80
2022-12-20T17:46:25.951Z,5.80
2022-12-20T17:47:59.151Z,5.80
2022-12-20T17:49:33.223Z,5.80
2022-12-20T17:51:15.377Z,5.80
2022-12-20T17:52:48.909Z,5.80
2022-12-20T17:54:23.743Z,5.80
2022-12-20T17:55:56.449Z,5.80
2022-12-20T17:57:29.161Z,5.80
2022-12-20T17:59:04.694Z,5.80
2022-12-20T18:00:39.525Z,5.80
2022-12-20T18:02:21.373Z,5.90
2022-12-20T18:04:04.885Z,5.90
2022-12-20T18:05:41.227Z,5.90
2022-12-20T18:07:13.920Z,5.90
2022-12-20T18:08:50.241Z,5.90
2022-12-20T18:10:23.981Z,5.90
2022-12-20T18:11:56.664Z,5.90
2022-12-20T18:13:29.374Z,5.90
2022-12-20T18:15:02.265Z,5.90
2022-12-20T18:16:35.778Z,5.90
2022-12-20T18:18:08.550Z,6.00
2022-12-20T18:19:41.510Z,5.90
2022-12-20T18:21:19.141Z,5.90
2022-12-20T18:22:51.930Z,5.90
2022-12-20T18:24:24.659Z,5.90
2022-12-20T18:26:06.499Z,5.90
2022-12-20T18:27:40.915Z,5.90
2022-12-20T18:29:14.495Z,5.90
2022-12-20T18:30:47.262Z,5.80
2022-12-20T18:32:19.995Z,5.80
2022-12-20T18:33:57.724Z,5.80
2022-12-20T18:35:31.350Z,5.80
2022-12-20T18:37:05.802Z,5.80
2022-12-20T18:38:40.578Z,5.80
2022-12-20T18:40:13.381Z,5.80
2022-12-20T18:41:47.564Z,5.80
2022-12-20T18:43:20.386Z,5.80
2022-12-20T18:44:53.664Z,5.70
2022-12-20T18:46:26.515Z,5.70
2022-12-20T18:47:59.730Z,5.70
2022-12-20T18:49:33.070Z,5.70
2022-12-20T18:51:06.374Z,5.70
2022-12-20T18:52:42.353Z,5.70
2022-12-20T18:54:17.031Z,5.60
2022-12-20T18:55:49.758Z,5.60
2022-12-20T18:57:22.475Z,5.60
2022-12-20T18:58:55.995Z,5.60
2022-12-20T19:00:28.717Z,5.50
2022-12-20T19:02:01.851Z,5.50
2022-12-20T19:03:34.973Z,5.50
2022-12-20T19:05:08.737Z,5.50
2022-12-20T19:06:41.738Z,5.50
2022-12-20T19:08:15.808Z,5.50
2022-12-20T19:09:48.574Z,5.50
2022-12-20T19:11:23.328Z,5.40
2022-12-20T19:13:00.837Z,5.40
2022-12-20T19:14:36.600Z,5.40
2022-12-20T19:16:12.987Z,5.40
2022-12-20T19:17:45.886Z,5.40
2022-12-20T19:19:18.736Z,5.40
2022-12-20T19:20:51.497Z,5.40
2022-12-20T19:22:24.271Z,5.40
2022-12-20T19:24:00.441Z,5.40
2022-12-20T19:25:35.408Z,5.40
2022-12-20T19:27:09.521Z,5.40
2022-12-20T19:28:43.254Z,5.40
2022-12-20T19:30:16.348Z,5.30
2022-12-20T19:31:49.389Z,5.30
2022-12-20T19:33:23.480Z,5.30
2022-12-20T19:34:56.220Z,5.30
2022-12-20T19:36:31.233Z,5.30
2022-12-20T19:38:04.117Z,5.30
2022-12-20T19:39:38.419Z,5.30
2022-12-20T19:41:11.524Z,5.30
2022-12-20T19:42:44.822Z,5.30
2022-12-20T19:44:17.790Z,5.40
2022-12-20T19:45:50.599Z,5.40
2022-12-20T19:47:26.204Z,5.40
2022-12-20T19:49:00.264Z,5.40
2022-12-20T19:50:33.032Z,5.40
2022-12-20T19:52:06.815Z,5.30
2022-12-20T19:53:40.623Z,5.30
2022-12-20T19:55:15.066Z,5.30
2022-12-20T19:56:47.836Z,5.30
2022-12-20T19:58:19.646Z,5.30
2022-12-20T19:59:56.009Z,5.30
2022-12-20T20:01:29.973Z,5.30
2022-12-20T20:03:03.037Z,5.30
2022-12-20T20:04:36.041Z,5.30
2022-12-20T20:06:09.257Z,5.30
2022-12-20T20:07:42.569Z,5.30
2022-12-20T20:09:15.369Z,5.30
2022-12-20T20:10:53.438Z,5.30
2022-12-20T20:12:26.445Z,5.30
2022-12-20T20:14:00.426Z,5.30
2022-12-20T20:15:33.181Z,5.30
2022-12-20T20:17:05.993Z,5.30
2022-12-20T20:18:40.040Z,5.20
2022-12-20T20:20:13.105Z,5.30
2022-12-20T20:21:46.225Z,5.30
2022-12-20T20:23:19.206Z,5.30
2022-12-20T20:24:51.922Z,5.30
2022-12-20T20:26:29.152Z,5.30
2022-12-20T20:28:02.187Z,5.30
2022-12-20T20:29:34.933Z,5.30
2022-12-20T20:31:10.630Z,5.30
2022-12-20T20:32:43.491Z,5.20
2022-12-20T20:34:16.423Z,5.30
2022-12-20T20:35:55.524Z,5.30
2022-12-20T20:37:28.236Z,5.30
2022-12-20T20:39:00.910Z,5.20
2022-12-20T20:40:34.227Z,5.30
2022-12-20T20:42:08.333Z,5.30
2022-12-20T20:43:41.545Z,5.30
2022-12-20T20:45:14.272Z,5.30
2022-12-20T20:46:47.047Z,5.20
2022-12-20T20:48:20.164Z,5.20
2022-12-20T20:49:53.513Z,5.20
2022-12-20T20:51:26.862Z,5.20
2022-12-20T20:52:59.686Z,5.20
2022-12-20T20:54:32.373Z,5.20
2022-12-20T20:56:08.369Z,5.20
2022-12-20T20:57:42.453Z,5.20
2022-12-20T20:59:17.853Z,5.20
2022-12-20T21:00:51.978Z,5.20
2022-12-20T21:02:25.081Z,5.20
2022-12-20T21:03:58.094Z,5.20
2022-12-20T21:07:23.536Z,5.30
2022-12-20T21:08:56.341Z,5.30
2022-12-20T21:10:29.188Z,5.30
2022-12-20T21:12:03.705Z,5.30
2022-12-20T21:13:37.918Z,5.30
2022-12-20T21:15:22.439Z,5.30
2022-12-20T21:16:55.909Z,5.30
2022-12-20T21:18:28.617Z,5.30
2022-12-20T21:20:01.430Z,5.30
2022-12-20T21:21:34.221Z,5.30
2022-12-20T21:23:07.222Z,5.30
2022-12-20T21:24:39.974Z,5.40
2022-12-20T21:26:13.570Z,5.30
2022-12-20T21:27:46.439Z,5.40